Time;durP1;ratioP1;P1;durP2;ratioP2;P2;SDS_P1;SDS_P2;PMS_P1;PMS_P2;Temp;Humidity;BMP_temperature;BMP_pressure;BME280_temperature;BME280_humidity;BME280_pressure;Samples;Min_cycle;Max_cycle;Signal;HPM_P1;HPM_P2
2023/12/30 00:01:53;;;;;;;;;;;;;;;5.87;67.22;100012.94;4437951;32;33966;-75
2023/12/30 00:04:22;;;;;;;;;;;;;;;5.97;66.95;100009.34;4436176;32;33421;-75
2023/12/30 00:06:50;;;;;;;;;;;;;;;6.08;66.54;100014.44;4449428;32;34759;-75
2023/12/30 00:09:17;;;;;;;;;;;;;;;6.09;66.39;100015.31;4455448;32;35029;-76
2023/12/30 00:11:44;;;;;;;;;;;;;;;5.99;66.26;100007.75;4450544;32;34578;-77
2023/12/30 00:14:12;;;;;;;;;;;;;;;6.17;65.27;100018.38;4449064;32;33455;-76
2023/12/30 00:16:41;;;;;;;;;;;;;;;5.84;66.77;100007.63;4450332;32;35205;-76
2023/12/30 00:19:10;;;;;;;;;;;;;;;5.89;66.50;100011.34;4452197;32;34168;-76
2023/12/30 00:21:38;;;;;;;;;;;;;;;5.84;66.61;100018.78;4434253;32;34329;-76
2023/12/30 00:24:05;;;;;;;;;;;;;;;5.93;65.79;100015.94;4448091;32;33442;-76
2023/12/30 00:26:32;;;;;;;;;;;;;;;5.61;66.47;100014.66;4432453;32;32371;-75
2023/12/30 00:29:00;;;;;;;;;;;;;;;5.90;65.26;100016.59;4448517;32;33955;-76
2023/12/30 00:31:28;;;;;;;;;;;;;;;5.82;65.78;100029.75;4451421;32;33988;-77
2023/12/30 00:33:57;;;;;;;;;;;;;;;5.86;65.58;100021.47;4447368;32;33371;-77
2023/12/30 00:36:24;;;;;;;;;;;;;;;5.86;65.25;100011.19;4451421;32;33715;-77
2023/12/30 00:38:54;;;;;;;;;;;;;;;5.90;64.59;100018.28;4450041;32;34668;-76
2023/12/30 00:41:22;;;;;;;;;;;;;;;5.74;65.33;100028.31;4453042;32;32324;-77
2023/12/30 00:43:49;;;;;;;;;;;;;;;5.60;65.69;100012.91;4449366;32;33229;-76
2023/12/30 00:46:19;;;;;;;;;;;;;;;5.70;65.18;100017.84;4440745;32;33089;-77
2023/12/30 00:48:47;;;;;;;;;;;;;;;5.79;65.01;100024.41;4437416;32;34213;-76
2023/12/30 00:51:25;;;;;;;;;;;;;;;5.91;63.86;100020.09;4452721;32;34099;-76
2023/12/30 00:53:52;;;;;;;;;;;;;;;5.69;64.63;100020.31;4453413;32;33344;-76
2023/12/30 00:56:19;;;;;;;;;;;;;;;5.71;65.14;100019.63;4452295;32;33576;-77
2023/12/30 00:58:47;;;;;;;;;;;;;;;5.72;65.05;100017.97;4454432;32;34816;-76
2023/12/30 01:01:14;;;;;;;;;;;;;;;5.50;65.59;100025.88;4454008;32;34835;-77
2023/12/30 01:03:41;;;;;;;;;;;;;;;5.68;65.39;100022.00;4453676;32;33181;-76
2023/12/30 01:06:09;;;;;;;;;;;;;;;5.54;65.87;100022.72;4452125;32;33705;-77
2023/12/30 01:08:36;;;;;;;;;;;;;;;5.67;65.42;100022.78;4453208;32;33986;-77
2023/12/30 01:11:04;;;;;;;;;;;;;;;5.61;66.05;100031.75;4447651;32;33951;-75
2023/12/30 01:13:31;;;;;;;;;;;;;;;5.38;66.67;100030.19;4452765;32;33667;-77
2023/12/30 01:15:58;;;;;;;;;;;;;;;5.53;66.49;100032.94;4434391;32;34894;-77
2023/12/30 01:18:26;;;;;;;;;;;;;;;5.61;66.20;100034.34;4452131;32;34665;-77
2023/12/30 01:20:53;;;;;;;;;;;;;;;5.58;66.35;100028.97;4447998;32;34760;-76
2023/12/30 01:23:21;;;;;;;;;;;;;;;5.63;66.29;100025.03;4447930;32;33995;-75
2023/12/30 01:25:48;;;;;;;;;;;;;;;5.62;66.49;100034.44;4442151;32;34060;-77
2023/12/30 01:28:15;;;;;;;;;;;;;;;5.64;66.50;100029.38;4443625;32;34882;-77
2023/12/30 01:30:43;;;;;;;;;;;;;;;5.63;66.44;100023.37;4451223;32;34905;-77
2023/12/30 01:33:10;;;;;;;;;;;;;;;5.63;66.49;100023.37;4452600;32;33536;-77
2023/12/30 01:35:38;;;;;;;;;;;;;;;5.71;66.35;100023.87;4450733;32;33847;-76
2023/12/30 01:38:05;;;;;;;;;;;;;;;5.72;66.24;100024.00;4453171;32;33986;-76
2023/12/30 01:40:33;;;;;;;;;;;;;;;5.69;65.81;100018.62;4452271;32;33960;-77
2023/12/30 01:43:02;;;;;;;;;;;;;;;5.66;66.04;100013.31;4439813;32;34045;-76
2023/12/30 01:45:31;;;;;;;;;;;;;;;5.63;66.07;100023.37;4443826;32;34870;-76
2023/12/30 01:47:58;;;;;;;;;;;;;;;5.58;66.17;100014.47;4453906;32;33952;-76
2023/12/30 01:50:26;;;;;;;;;;;;;;;5.58;66.33;100009.34;4424314;32;34206;-77
2023/12/30 01:52:53;;;;;;;;;;;;;;;5.65;66.01;100006.37;4433510;32;33494;-77
2023/12/30 01:55:20;;;;;;;;;;;;;;;5.71;66.09;100004.19;4456921;32;35062;-76
2023/12/30 01:57:48;;;;;;;;;;;;;;;5.79;65.90;99998.69;4449771;32;34064;-77
2023/12/30 02:00:19;;;;;;;;;;;;;;;5.67;66.07;100003.91;4439253;32;34467;-76
2023/12/30 02:02:49;;;;;;;;;;;;;;;5.86;65.69;99990.59;4453100;32;33277;-75
2023/12/30 02:05:17;;;;;;;;;;;;;;;5.70;65.97;99994.72;4439152;32;33825;-77
2023/12/30 02:07:45;;;;;;;;;;;;;;;5.60;66.71;99994.00;4448124;32;34183;-76
2023/12/30 02:10:13;;;;;;;;;;;;;;;5.76;66.06;99988.22;4446920;32;34104;-76
2023/12/30 02:12:40;;;;;;;;;;;;;;;5.65;66.57;99998.66;4453264;32;34130;-76
2023/12/30 02:15:14;;;;;;;;;;;;;;;5.71;66.54;99988.78;4439288;32;33963;-78
2023/12/30 02:17:42;;;;;;;;;;;;;;;5.58;67.23;99988.78;4438577;32;34286;-76
2023/12/30 02:20:10;;;;;;;;;;;;;;;5.83;66.62;99995.53;4444521;32;35210;-76
2023/12/30 02:22:45;;;;;;;;;;;;;;;5.84;66.36;99976.75;4449116;32;33232;-76
2023/12/30 02:25:12;;;;;;;;;;;;;;;5.27;66.09;99978.97;4449892;32;33945;-77
2023/12/30 02:27:41;;;;;;;;;;;;;;;5.36;65.15;99990.66;4459064;32;34171;-76
2023/12/30 02:30:09;;;;;;;;;;;;;;;5.40;66.05;99979.81;4431562;32;33934;-76
2023/12/30 02:32:36;;;;;;;;;;;;;;;5.25;66.69;99984.78;4454772;32;33238;-77
2023/12/30 02:35:04;;;;;;;;;;;;;;;5.30;67.56;99981.75;4448182;32;33334;-75
2023/12/30 02:37:31;;;;;;;;;;;;;;;5.55;67.35;99978.28;4445886;32;34189;-76
2023/12/30 02:39:59;;;;;;;;;;;;;;;5.55;67.22;99988.56;4455012;32;33437;-77
2023/12/30 02:42:26;;;;;;;;;;;;;;;5.39;67.47;99980.56;4447539;32;34123;-76
2023/12/30 02:44:53;;;;;;;;;;;;;;;4.92;68.31;99985.13;4445490;32;33965;-76
2023/12/30 02:47:21;;;;;;;;;;;;;;;4.99;68.49;99999.28;4451270;32;34026;-77
2023/12/30 02:49:49;;;;;;;;;;;;;;;5.13;68.12;99987.41;4450593;32;34518;-76
2023/12/30 02:52:16;;;;;;;;;;;;;;;5.24;68.28;99985.59;4449944;32;33542;-77
2023/12/30 02:54:44;;;;;;;;;;;;;;;5.23;68.53;99994.94;4453682;32;33461;-76
2023/12/30 02:57:11;;;;;;;;;;;;;;;5.34;68.62;99987.09;4455502;32;34977;-75
2023/12/30 02:59:38;;;;;;;;;;;;;;;5.36;68.67;99990.66;4452395;32;33950;-77
2023/12/30 03:02:05;;;;;;;;;;;;;;;5.56;68.30;99994.56;4450093;32;34036;-77
2023/12/30 03:04:33;;;;;;;;;;;;;;;5.79;67.99;99983.28;4449368;32;34903;-77
2023/12/30 03:07:00;;;;;;;;;;;;;;;5.45;68.96;99987.03;4426832;32;799191;-76
2023/12/30 03:09:28;;;;;;;;;;;;;;;5.60;67.91;99974.34;4449050;32;34838;-76
2023/12/30 03:11:55;;;;;;;;;;;;;;;5.57;67.80;99981.84;4449752;32;33154;-77
2023/12/30 03:14:22;;;;;;;;;;;;;;;5.71;67.81;99986.22;4448154;32;35033;-76
2023/12/30 03:16:50;;;;;;;;;;;;;;;5.89;67.18;99981.41;4452047;32;33931;-77
2023/12/30 03:19:17;;;;;;;;;;;;;;;5.68;67.68;99986.03;4453277;32;34174;-77
2023/12/30 03:21:45;;;;;;;;;;;;;;;5.55;68.31;99983.41;4451897;32;33247;-77
2023/12/30 03:24:12;;;;;;;;;;;;;;;5.74;67.43;99985.53;4453939;32;34520;-77
2023/12/30 03:26:39;;;;;;;;;;;;;;;5.65;66.91;99977.22;4447563;32;33857;-76
2023/12/30 03:29:06;;;;;;;;;;;;;;;5.78;65.76;99981.50;4441923;32;34040;-75
2023/12/30 03:31:35;;;;;;;;;;;;;;;5.51;65.72;99981.44;4445563;32;32830;-76
2023/12/30 03:34:03;;;;;;;;;;;;;;;5.37;66.41;99992.44;4450995;32;35091;-75
2023/12/30 03:36:30;;;;;;;;;;;;;;;5.56;65.01;99987.75;4450579;32;35023;-77
2023/12/30 03:38:58;;;;;;;;;;;;;;;5.45;65.06;99992.19;4438605;32;33502;-77
2023/12/30 03:41:25;;;;;;;;;;;;;;;5.27;65.25;99989.25;4456601;32;34338;-76
2023/12/30 03:43:52;;;;;;;;;;;;;;;5.00;65.80;99982.19;4454145;32;34391;-75
2023/12/30 03:46:20;;;;;;;;;;;;;;;5.03;65.69;100002.97;4456805;32;34228;-76
2023/12/30 03:48:47;;;;;;;;;;;;;;;4.55;67.41;99973.03;4435809;32;34701;-77
2023/12/30 03:51:15;;;;;;;;;;;;;;;4.46;67.54;99994.72;4457779;32;33367;-77
2023/12/30 03:53:42;;;;;;;;;;;;;;;4.76;66.61;99999.34;4452847;32;34695;-77
2023/12/30 03:56:11;;;;;;;;;;;;;;;4.79;66.92;99992.75;4462734;32;33909;-76
2023/12/30 03:58:39;;;;;;;;;;;;;;;4.62;67.62;99998.38;4448852;32;33682;-77
2023/12/30 04:01:06;;;;;;;;;;;;;;;4.75;67.76;99997.53;4451242;32;33666;-77
2023/12/30 04:03:34;;;;;;;;;;;;;;;4.96;66.75;100004.19;4451053;32;34356;-77
2023/12/30 04:06:01;;;;;;;;;;;;;;;4.82;67.56;99980.13;4448639;32;34043;-77
2023/12/30 04:08:29;;;;;;;;;;;;;;;5.00;67.15;100008.75;4453356;32;34488;-75
2023/12/30 04:10:56;;;;;;;;;;;;;;;5.06;66.59;100005.72;4449113;32;33269;-75
2023/12/30 04:13:23;;;;;;;;;;;;;;;4.89;67.15;99982.34;4446255;32;34027;-76
2023/12/30 04:15:51;;;;;;;;;;;;;;;4.79;67.50;100003.03;4453866;32;34899;-76
2023/12/30 04:18:18;;;;;;;;;;;;;;;4.71;67.87;100006.69;4449060;32;34116;-76
2023/12/30 04:20:46;;;;;;;;;;;;;;;4.77;67.89;99991.75;4448941;32;33807;-76
2023/12/30 04:23:13;;;;;;;;;;;;;;;4.79;68.19;100005.59;4454135;32;34013;-77
2023/12/30 04:25:41;;;;;;;;;;;;;;;4.99;67.61;100004.41;4455153;32;34810;-77
2023/12/30 04:28:08;;;;;;;;;;;;;;;4.83;68.18;99992.19;4451179;32;35093;-75
2023/12/30 04:30:36;;;;;;;;;;;;;;;4.81;68.28;100006.59;4455509;32;33584;-77
2023/12/30 04:33:04;;;;;;;;;;;;;;;4.86;68.20;99997.50;4453639;32;33875;-76
2023/12/30 04:35:34;;;;;;;;;;;;;;;4.68;68.00;99988.53;4452390;32;33475;-76
2023/12/30 04:38:02;;;;;;;;;;;;;;;4.79;67.81;100010.72;4457405;32;34062;-76
2023/12/30 04:40:29;;;;;;;;;;;;;;;4.63;68.57;99992.44;4453379;32;33153;-76
2023/12/30 04:42:57;;;;;;;;;;;;;;;4.42;69.23;99990.09;4454044;32;34332;-75
2023/12/30 04:45:24;;;;;;;;;;;;;;;4.59;68.84;100021.22;4451121;32;34714;-77
2023/12/30 04:47:53;;;;;;;;;;;;;;;4.55;69.72;99989.31;4441251;32;34978;-77
2023/12/30 04:50:23;;;;;;;;;;;;;;;4.19;71.02;99997.81;4447739;32;33156;-75
2023/12/30 04:52:50;;;;;;;;;;;;;;;4.51;69.90;100018.09;4448126;32;34165;-77
2023/12/30 04:55:18;;;;;;;;;;;;;;;4.64;70.29;100015.66;4445954;32;34272;-77
2023/12/30 04:57:47;;;;;;;;;;;;;;;4.69;71.09;100008.25;4457011;32;33967;-75
2023/12/30 05:00:15;;;;;;;;;;;;;;;4.62;71.91;100029.16;4451774;32;33089;-77
2023/12/30 05:02:46;;;;;;;;;;;;;;;4.61;71.71;100024.78;4440348;32;34072;-77
2023/12/30 05:05:13;;;;;;;;;;;;;;;4.90;71.50;100025.19;4439914;32;35331;-75
2023/12/30 05:07:41;;;;;;;;;;;;;;;4.88;71.62;100025.88;4452028;32;34183;-75
2023/12/30 05:10:09;;;;;;;;;;;;;;;4.90;71.86;100021.72;4457822;32;32928;-76
2023/12/30 05:12:37;;;;;;;;;;;;;;;5.13;71.69;100020.78;4453127;32;34777;-77
2023/12/30 05:15:04;;;;;;;;;;;;;;;5.32;71.38;100016.13;4452678;32;34267;-75
2023/12/30 05:17:32;;;;;;;;;;;;;;;5.27;71.23;100047.41;4442321;32;32809;-76
2023/12/30 05:20:00;;;;;;;;;;;;;;;5.23;71.28;100028.31;4453178;32;34149;-76
2023/12/30 05:22:27;;;;;;;;;;;;;;;5.46;71.11;100035.06;4451462;32;34723;-75
2023/12/30 05:24:54;;;;;;;;;;;;;;;5.67;70.49;100020.22;4451756;32;34395;-75
2023/12/30 05:27:22;;;;;;;;;;;;;;;5.58;71.18;100026.41;4449955;32;34855;-77
2023/12/30 05:29:49;;;;;;;;;;;;;;;5.63;70.83;100033.63;4439917;32;32084;-76
2023/12/30 05:32:16;;;;;;;;;;;;;;;5.61;71.15;100035.22;4448901;32;33718;-76
2023/12/30 05:34:44;;;;;;;;;;;;;;;5.64;71.11;100027.72;4447343;32;34656;-77
2023/12/30 05:37:11;;;;;;;;;;;;;;;5.78;70.81;100032.91;4452960;32;34260;-76
2023/12/30 05:39:39;;;;;;;;;;;;;;;5.70;71.25;100035.84;4452012;32;32691;-76
2023/12/30 05:42:07;;;;;;;;;;;;;;;5.69;71.55;100034.06;4452928;32;33922;-77
2023/12/30 05:44:34;;;;;;;;;;;;;;;5.95;71.39;100040.09;4452886;32;34499;-76
2023/12/30 05:47:02;;;;;;;;;;;;;;;6.22;70.14;100029.84;4449165;32;34039;-76
2023/12/30 05:49:29;;;;;;;;;;;;;;;5.91;70.93;100036.41;4453141;32;33099;-76
2023/12/30 05:51:56;;;;;;;;;;;;;;;6.16;70.18;100032.00;4448109;32;34238;-77
2023/12/30 05:54:26;;;;;;;;;;;;;;;6.29;69.70;100037.19;4447889;32;34004;-77
2023/12/30 05:56:53;;;;;;;;;;;;;;;6.31;69.33;100048.47;4456370;32;33902;-76
2023/12/30 05:59:20;;;;;;;;;;;;;;;6.22;69.28;100047.84;4442235;32;33447;-75
2023/12/30 06:01:48;;;;;;;;;;;;;;;6.10;69.85;100042.78;4452651;32;34197;-77
2023/12/30 06:04:16;;;;;;;;;;;;;;;5.96;70.62;100049.59;4453320;32;34210;-77
2023/12/30 06:06:43;;;;;;;;;;;;;;;6.10;70.16;100053.06;4450886;32;35565;-76
2023/12/30 06:09:11;;;;;;;;;;;;;;;6.08;70.28;100050.44;4458108;32;34298;-76
2023/12/30 06:11:38;;;;;;;;;;;;;;;6.23;69.97;100054.78;4452489;32;33544;-76
2023/12/30 06:14:06;;;;;;;;;;;;;;;6.28;70.03;100053.41;4452428;32;33858;-77
2023/12/30 06:16:33;;;;;;;;;;;;;;;6.27;70.24;100056.78;4458916;32;34146;-76
2023/12/30 06:19:00;;;;;;;;;;;;;;;6.50;69.17;100035.12;4452579;32;33249;-76
2023/12/30 06:21:28;;;;;;;;;;;;;;;6.45;68.42;100052.84;4452893;32;34772;-77
2023/12/30 06:23:55;;;;;;;;;;;;;;;6.31;69.28;100058.75;4447348;32;34176;-77
2023/12/30 06:26:22;;;;;;;;;;;;;;;6.37;69.09;100064.28;4450981;32;34054;-76
2023/12/30 06:28:50;;;;;;;;;;;;;;;6.24;69.69;100056.59;4452298;32;33191;-76
2023/12/30 06:31:17;;;;;;;;;;;;;;;6.36;69.29;100062.53;4449548;32;34237;-76
2023/12/30 06:33:44;;;;;;;;;;;;;;;6.36;69.03;100061.66;4445114;32;34091;-76
2023/12/30 06:36:18;;;;;;;;;;;;;;;6.34;68.87;100058.09;4452597;32;34822;-76
2023/12/30 06:38:46;;;;;;;;;;;;;;;6.23;68.92;100070.22;4439872;32;33052;-77
2023/12/30 06:41:13;;;;;;;;;;;;;;;6.27;69.05;100074.78;4436518;32;33047;-75
2023/12/30 06:43:40;;;;;;;;;;;;;;;6.23;69.05;100075.38;4454436;32;34141;-77
2023/12/30 06:46:08;;;;;;;;;;;;;;;6.47;68.12;100065.78;4454065;32;34986;-75
2023/12/30 06:48:35;;;;;;;;;;;;;;;6.38;68.43;100068.66;4450128;32;33459;-77
2023/12/30 06:51:03;;;;;;;;;;;;;;;6.34;68.63;100079.53;4447681;32;34065;-77
2023/12/30 06:53:30;;;;;;;;;;;;;;;6.13;69.31;100088.41;4450211;32;34332;-77
2023/12/30 06:56:01;;;;;;;;;;;;;;;7.95;86.01;100088.75;4458282;32;34904;-76
2023/12/30 06:58:29;;;;;;;;;;;;;;;7.47;78.44;100084.97;4445058;32;33434;-75
2023/12/30 07:00:56;;;;;;;;;;;;;;;7.11;75.60;100084.50;4435575;32;34798;-77
2023/12/30 07:03:24;;;;;;;;;;;;;;;7.09;74.94;100093.81;4437293;32;34643;-76
2023/12/30 07:05:51;;;;;;;;;;;;;;;6.94;73.63;100100.56;4455069;32;34224;-77
2023/12/30 07:08:19;;;;;;;;;;;;;;;6.84;74.08;100099.97;4453755;32;32886;-78
2023/12/30 07:10:46;;;;;;;;;;;;;;;6.63;74.99;100108.88;4423797;32;34105;-76
2023/12/30 07:13:13;;;;;;;;;;;;;;;6.66;74.61;100114.22;4451830;32;35619;-76
2023/12/30 07:15:41;;;;;;;;;;;;;;;6.64;74.60;100124.41;4452618;32;34513;-77
2023/12/30 07:18:09;;;;;;;;;;;;;;;6.52;74.65;100120.16;4450699;32;33257;-76
2023/12/30 07:20:37;;;;;;;;;;;;;;;6.46;74.60;100130.94;4449343;32;34064;-77
2023/12/30 07:23:06;;;;;;;;;;;;;;;6.60;73.74;100121.53;4450612;32;34123;-76
2023/12/30 07:25:34;;;;;;;;;;;;;;;6.66;73.24;100134.78;4454152;32;33451;-77
2023/12/30 07:28:01;;;;;;;;;;;;;;;6.67;72.92;100126.31;4455287;32;33840;-76
2023/12/30 07:30:29;;;;;;;;;;;;;;;6.72;72.59;100132.63;4436228;32;32735;-77
2023/12/30 07:32:56;;;;;;;;;;;;;;;6.79;71.71;100127.09;4450970;32;33866;-75
2023/12/30 07:35:24;;;;;;;;;;;;;;;6.88;70.86;100137.09;4451445;32;34905;-77
2023/12/30 07:37:51;;;;;;;;;;;;;;;6.84;71.10;100141.16;4449920;32;31777;-76
2023/12/30 07:40:19;;;;;;;;;;;;;;;6.82;71.50;100137.59;4448203;32;34624;-76
2023/12/30 07:42:46;;;;;;;;;;;;;;;6.82;71.92;100136.72;4438999;32;33875;-77
2023/12/30 07:45:14;;;;;;;;;;;;;;;6.85;72.37;100142.03;4435710;32;33982;-76
2023/12/30 07:47:41;;;;;;;;;;;;;;;6.88;72.38;100135.41;4440642;32;33655;-76
2023/12/30 07:50:08;;;;;;;;;;;;;;;6.94;72.62;100146.91;4453385;32;33851;-75
2023/12/30 07:52:36;;;;;;;;;;;;;;;7.35;82.50;100140.94;4431648;32;34814;-76
2023/12/30 07:55:03;;;;;;;;;;;;;;;7.20;77.56;100146.88;4449679;32;34189;-76
2023/12/30 07:57:31;;;;;;;;;;;;;;;7.24;76.59;100154.03;4437258;32;32985;-76
2023/12/30 07:59:58;;;;;;;;;;;;;;;7.33;75.34;100152.81;4447494;32;34957;-76
2023/12/30 08:02:26;;;;;;;;;;;;;;;7.40;74.55;100150.72;4448480;32;34322;-77
2023/12/30 08:04:54;;;;;;;;;;;;;;;7.48;73.71;100154.69;4440364;32;33901;-77
2023/12/30 08:07:21;;;;;;;;;;;;;;;7.66;71.55;100154.91;4453973;32;34132;-76
2023/12/30 08:09:49;;;;;;;;;;;;;;;7.43;73.09;100157.75;4457263;32;34065;-77
2023/12/30 08:12:16;;;;;;;;;;;;;;;7.49;72.33;100163.28;4448150;32;34219;-76
2023/12/30 08:14:43;;;;;;;;;;;;;;;7.42;72.59;100166.28;4450615;32;34037;-77
2023/12/30 08:17:11;;;;;;;;;;;;;;;7.64;69.85;100156.50;4453145;32;33790;-76
2023/12/30 08:19:38;;;;;;;;;;;;;;;7.19;72.11;100165.72;4451437;32;33373;-79
2023/12/30 08:22:05;;;;;;;;;;;;;;;7.50;70.48;100167.66;4450755;32;33944;-78
2023/12/30 08:24:33;;;;;;;;;;;;;;;7.40;71.22;100176.50;4452417;32;34657;-77
2023/12/30 08:27:00;;;;;;;;;;;;;;;7.34;71.85;100177.78;4451811;32;33472;-78
2023/12/30 08:29:28;;;;;;;;;;;;;;;7.37;71.99;100180.56;4452980;32;35059;-77
2023/12/30 08:31:55;;;;;;;;;;;;;;;7.43;72.13;100180.94;4452361;32;33881;-78
2023/12/30 08:34:27;;;;;;;;;;;;;;;7.61;71.71;100187.28;4453138;32;34256;-78
2023/12/30 08:36:55;;;;;;;;;;;;;;;7.66;71.79;100182.41;4452976;32;33404;-75
2023/12/30 08:39:22;;;;;;;;;;;;;;;7.94;71.32;100190.16;4426523;32;33402;-76
2023/12/30 08:41:50;;;;;;;;;;;;;;;8.04;70.75;100194.19;4453221;32;34936;-78
2023/12/30 08:44:17;;;;;;;;;;;;;;;8.02;71.33;100186.34;4445148;32;34793;-77
2023/12/30 08:46:45;;;;;;;;;;;;;;;8.34;70.47;100179.66;4436119;32;33316;-76
2023/12/30 08:49:12;;;;;;;;;;;;;;;8.49;69.71;100174.53;4453654;32;34515;-77
2023/12/30 08:51:40;;;;;;;;;;;;;;;8.45;70.32;100178.63;4451300;32;33796;-77
2023/12/30 08:54:07;;;;;;;;;;;;;;;8.58;70.19;100184.53;4452508;32;34089;-75
2023/12/30 08:56:34;;;;;;;;;;;;;;;8.60;70.72;100188.09;4446950;32;34232;-76
2023/12/30 08:59:02;;;;;;;;;;;;;;;8.62;71.25;100191.66;4448925;32;34962;-77
2023/12/30 09:01:30;;;;;;;;;;;;;;;8.66;71.38;100188.44;4437361;32;33764;-75
2023/12/30 09:03:59;;;;;;;;;;;;;;;8.66;71.65;100188.44;4451133;32;34107;-76
2023/12/30 09:06:27;;;;;;;;;;;;;;;8.74;71.67;100197.53;4439403;32;33369;-76
2023/12/30 09:08:54;;;;;;;;;;;;;;;8.88;71.21;100200.91;4453577;32;34320;-77
2023/12/30 09:11:22;;;;;;;;;;;;;;;8.78;71.47;100189.16;4450925;32;34281;-77
2023/12/30 09:13:50;;;;;;;;;;;;;;;8.79;71.44;100203.00;4453805;32;33895;-75
2023/12/30 09:16:17;;;;;;;;;;;;;;;8.89;71.17;100196.66;4438989;32;33130;-75
2023/12/30 09:18:45;;;;;;;;;;;;;;;8.83;71.33;100195.50;4438114;32;34882;-76
2023/12/30 09:21:13;;;;;;;;;;;;;;;9.01;70.79;100197.34;4452158;32;34258;-75
2023/12/30 09:23:40;;;;;;;;;;;;;;;9.15;70.43;100201.59;4454654;32;34249;-77
2023/12/30 09:26:08;;;;;;;;;;;;;;;9.08;70.43;100199.50;4453896;32;32962;-76
2023/12/30 09:28:35;;;;;;;;;;;;;;;9.10;70.20;100203.06;4453897;32;34017;-76
2023/12/30 09:31:03;;;;;;;;;;;;;;;9.24;69.81;100202.13;4452867;32;34166;-76
2023/12/30 09:33:30;;;;;;;;;;;;;;;9.18;70.13;100200.91;4451827;32;33989;-74
2023/12/30 09:35:58;;;;;;;;;;;;;;;9.14;70.15;100198.94;4435574;32;33373;-76
2023/12/30 09:38:25;;;;;;;;;;;;;;;9.29;69.70;100198.91;4451446;32;34290;-77
2023/12/30 09:40:54;;;;;;;;;;;;;;;9.43;69.34;100190.25;4452361;32;34147;-77
2023/12/30 09:43:26;;;;;;;;;;;;;;;9.47;69.61;100189.59;4436454;32;33919;-77
2023/12/30 09:45:54;;;;;;;;;;;;;;;9.76;67.93;100193.78;4451521;32;33211;-77
2023/12/30 09:48:25;;;;;;;;;;;;;;;9.72;67.84;100202.19;4458452;32;34912;-77
2023/12/30 09:50:53;;;;;;;;;;;;;;;9.60;68.85;100194.66;4452731;32;33702;-77
2023/12/30 09:53:22;;;;;;;;;;;;;;;9.49;68.85;100202.63;4453788;32;34011;-77
2023/12/30 09:55:50;;;;;;;;;;;;;;;9.56;68.81;100195.28;4450136;32;32816;-77
2023/12/30 09:58:18;;;;;;;;;;;;;;;9.70;68.60;100198.62;4450447;32;34001;-77
2023/12/30 10:00:45;;;;;;;;;;;;;;;9.69;68.49;100196.81;4443294;32;34240;-77
2023/12/30 10:03:13;;;;;;;;;;;;;;;9.92;68.30;100187.72;4453022;32;34045;-77
2023/12/30 10:05:41;;;;;;;;;;;;;;;9.89;68.49;100190.16;4442429;32;33296;-77
2023/12/30 10:08:10;;;;;;;;;;;;;;;10.00;68.79;100191.59;4438483;32;33892;-77
2023/12/30 10:10:44;;;;;;;;;;;;;;;10.19;68.42;100195.19;4439688;32;33934;-77
2023/12/30 10:13:11;;;;;;;;;;;;;;;10.36;67.55;100181.44;4433991;32;33982;-77
2023/12/30 10:15:40;;;;;;;;;;;;;;;10.66;66.64;100176.03;4444042;32;33472;-77
2023/12/30 10:18:08;;;;;;;;;;;;;;;10.74;66.42;100176.41;4450293;32;34845;-77
2023/12/30 10:20:37;;;;;;;;;;;;;;;10.87;65.62;100172.75;4452665;32;34294;-77
2023/12/30 10:23:06;;;;;;;;;;;;;;;11.04;63.93;100174.47;4451413;32;34074;-76
2023/12/30 10:25:34;;;;;;;;;;;;;;;11.03;67.53;100172.69;4452722;32;33016;-78
2023/12/30 10:28:01;;;;;;;;;;;;;;;11.19;64.34;100175.19;4438964;32;33779;-77
2023/12/30 10:30:30;;;;;;;;;;;;;;;11.07;65.84;100172.03;4436821;32;34150;-77
2023/12/30 10:33:11;;;;;;;;;;;;;;;11.33;64.49;100175.84;4438371;32;33800;-77
2023/12/30 10:35:42;;;;;;;;;;;;;;;11.46;63.72;100172.16;4452790;32;32748;-77
2023/12/30 10:38:12;;;;;;;;;;;;;;;11.70;61.47;100166.31;4450808;32;33965;-77
2023/12/30 10:40:40;;;;;;;;;;;;;;;11.79;60.76;100167.62;4448412;32;33875;-77
2023/12/30 10:43:07;;;;;;;;;;;;;;;11.67;61.13;100166.19;4435922;32;34216;-77
2023/12/30 10:45:36;;;;;;;;;;;;;;;11.86;59.83;100158.44;4452736;32;33667;-77
2023/12/30 10:48:05;;;;;;;;;;;;;;;12.03;59.37;100155.72;4447354;32;34284;-77
2023/12/30 10:50:36;;;;;;;;;;;;;;;12.04;59.39;100147.12;4449896;32;33335;-77
2023/12/30 10:53:27;;;;;;;;;;;;;;;11.94;59.81;100151.03;4452639;32;34286;-77
2023/12/30 10:55:59;;;;;;;;;;;;;;;11.95;59.48;100142.41;4449338;32;34141;-77
2023/12/30 10:58:27;;;;;;;;;;;;;;;12.26;58.47;100143.75;4447735;32;34632;-77
2023/12/30 11:00:57;;;;;;;;;;;;;;;12.42;72.02;100140.09;4437975;32;35111;-76
2023/12/30 11:03:25;;;;;;;;;;;;;;;13.05;78.72;100141.00;4451144;32;35215;-76
2023/12/30 11:06:08;;;;;;;;;;;;;;;13.66;72.84;100141.66;4451105;32;34337;-78
2023/12/30 11:08:35;;;;;;;;;;;;;;;14.48;72.10;100138.50;4437862;32;34197;-76
2023/12/30 11:11:04;;;;;;;;;;;;;;;14.67;59.29;100129.63;4438155;32;34188;-77
2023/12/30 11:13:35;;;;;;;;;;;;;;;14.45;55.48;100130.59;4447020;32;34837;-77
2023/12/30 11:16:15;;;;;;;;;;;;;;;14.35;53.35;100126.81;4449721;32;31582;-77
2023/12/30 11:18:47;;;;;;;;;;;;;;;14.15;52.21;100130.41;4450265;32;33845;-74
2023/12/30 11:21:33;;;;;;;;;;;;;;;14.06;52.04;100133.59;4451886;32;34100;-76
2023/12/30 11:24:01;;;;;;;;;;;;;;;13.64;53.01;100135.50;4452194;32;33945;-76
2023/12/30 11:26:29;;;;;;;;;;;;;;;13.75;52.88;100123.75;4452492;32;33949;-76
2023/12/30 11:29:00;;;;;;;;;;;;;;;13.84;52.15;100121.50;4450992;32;34040;-77
2023/12/30 11:31:34;;;;;;;;;;;;;;;13.48;53.70;100128.81;4437051;32;33995;-77
2023/12/30 11:34:02;;;;;;;;;;;;;;;13.37;53.68;100124.09;4448784;32;32716;-77
2023/12/30 11:36:30;;;;;;;;;;;;;;;13.45;53.71;100126.97;4436810;32;32999;-77
2023/12/30 11:38:58;;;;;;;;;;;;;;;13.41;53.89;100125.09;4452277;32;33881;-76
2023/12/30 11:41:26;;;;;;;;;;;;;;;13.40;53.88;100118.09;4452137;32;33857;-77
2023/12/30 11:43:54;;;;;;;;;;;;;;;13.15;54.41;100117.12;4452567;32;34996;-77
2023/12/30 11:46:21;;;;;;;;;;;;;;;13.23;54.93;100113.94;4451401;32;33175;-77
2023/12/30 11:48:48;;;;;;;;;;;;;;;13.50;59.48;100109.84;4446245;32;34725;-77
2023/12/30 11:51:20;;;;;;;;;;;;;;;13.46;62.00;100117.44;4453777;32;33203;-77
2023/12/30 11:53:47;;;;;;;;;;;;;;;13.39;59.90;100120.66;4432559;32;34373;-77
2023/12/30 11:56:15;;;;;;;;;;;;;;;13.59;56.73;100109.28;4451184;32;33460;-77
2023/12/30 11:58:46;;;;;;;;;;;;;;;13.62;54.74;100103.28;4449694;32;34080;-76
2023/12/30 12:01:13;;;;;;;;;;;;;;;13.42;55.16;100111.25;4451904;32;35079;-76
2023/12/30 12:03:41;;;;;;;;;;;;;;;13.72;54.72;100101.09;4439404;32;34101;-77
2023/12/30 12:06:09;;;;;;;;;;;;;;;13.64;54.58;100101.66;4454495;32;33443;-77
2023/12/30 12:08:36;;;;;;;;;;;;;;;13.75;62.75;100100.31;4449518;32;33540;-77
2023/12/30 12:11:03;;;;;;;;;;;;;;;13.76;60.90;100102.09;4446197;32;33869;-76
2023/12/30 12:13:31;;;;;;;;;;;;;;;13.65;58.78;100096.50;4452287;32;34095;-76
2023/12/30 12:15:59;;;;;;;;;;;;;;;13.83;58.74;100098.91;4441694;32;33283;-77
2023/12/30 12:18:26;;;;;;;;;;;;;;;13.98;58.62;100089.84;4438715;32;34988;-77
2023/12/30 12:20:54;;;;;;;;;;;;;;;14.12;57.74;100086.03;4453653;32;34936;-77
2023/12/30 12:23:24;;;;;;;;;;;;;;;14.32;56.54;100090.19;4433819;32;34547;-76
2023/12/30 12:25:52;;;;;;;;;;;;;;;14.38;56.65;100091.25;4436840;32;34155;-77
2023/12/30 12:28:23;;;;;;;;;;;;;;;14.78;55.22;100088.28;4438895;32;33908;-77
2023/12/30 12:30:50;;;;;;;;;;;;;;;14.46;55.89;100095.88;4445785;32;34636;-76
2023/12/30 12:33:19;;;;;;;;;;;;;;;14.48;55.47;100090.72;4438587;32;34641;-77
2023/12/30 12:35:46;;;;;;;;;;;;;;;14.99;52.93;100085.47;4453550;32;34018;-77
2023/12/30 12:38:13;;;;;;;;;;;;;;;15.01;52.19;100085.50;4455100;32;33885;-76
2023/12/30 12:40:43;;;;;;;;;;;;;;;14.88;54.25;100086.84;4448414;32;34003;-76
2023/12/30 12:43:10;;;;;;;;;;;;;;;14.90;53.26;100085.19;4438271;32;34135;-76
2023/12/30 12:45:37;;;;;;;;;;;;;;;15.38;51.75;100079.69;4456166;32;33421;-77
2023/12/30 12:48:05;;;;;;;;;;;;;;;15.14;52.84;100080.72;4441534;32;34246;-77
2023/12/30 12:50:32;;;;;;;;;;;;;;;15.57;50.95;100080.22;4453740;32;33789;-77